Time;durP1;ratioP1;P1;durP2;ratioP2;P2;SDS_P1;SDS_P2;PMS_P1;PMS_P2;Temp;Humidity;BMP_temperature;BMP_pressure;BME280_temperature;BME280_humidity;BME280_pressure;Samples;Min_cycle;Max_cycle;Signal;HPM_P1;HPM_P2
2022/11/29 00:01:02;;;;;;;26.00;23.67;;;;;;;11.14;63.70;101330.47;4976114;28;20062;-73
2022/11/29 00:03:28;;;;;;;26.38;24.10;;;;;;;11.13;63.78;101320.69;4976145;28;20030;-71
2022/11/29 00:05:54;;;;;;;27.30;25.10;;;;;;;11.12;63.61;101319.06;4976021;28;20035;-71
2022/11/29 00:08:21;;;;;;;26.17;23.77;;;;;;;11.12;63.75;101323.66;4976028;28;20042;-71
2022/11/29 00:10:46;;;;;;;26.77;24.33;;;;;;;11.11;63.63;101327.41;4976145;28;20031;-71
2022/11/29 00:13:12;;;;;;;24.35;22.48;;;;;;;11.11;63.83;101324.69;4975942;28;20046;-71
2022/11/29 00:15:38;;;;;;;26.45;24.13;;;;;;;11.10;63.72;101328.47;4975777;28;20038;-71
2022/11/29 00:18:05;;;;;;;27.38;25.30;;;;;;;11.09;63.85;101324.94;4976081;28;20034;-71
2022/11/29 00:20:31;;;;;;;26.35;24.05;;;;;;;11.08;63.67;101323.28;4975732;28;20043;-70
2022/11/29 00:22:57;;;;;;;24.58;22.13;;;;;;;11.08;63.85;101330.56;4991126;28;20101;-71
2022/11/29 00:25:22;;;;;;;24.55;22.55;;;;;;;11.07;63.78;101334.34;4975642;28;20543;-72
2022/11/29 00:27:49;;;;;;;26.85;24.70;;;;;;;11.06;63.73;101333.50;4991340;28;20038;-71
2022/11/29 00:30:14;;;;;;;25.90;23.92;;;;;;;11.05;63.71;101332.66;4990967;28;20064;-71
2022/11/29 00:32:40;;;;;;;28.13;25.60;;;;;;;11.03;63.71;101337.47;4975425;28;20030;-71
2022/11/29 00:35:05;;;;;;;26.92;24.67;;;;;;;11.02;63.67;101335.84;4975603;28;20062;-71
2022/11/29 00:37:31;;;;;;;26.55;24.33;;;;;;;11.02;63.71;101335.84;4975146;28;20110;-71
2022/11/29 00:39:56;;;;;;;26.83;24.60;;;;;;;11.01;63.63;101334.22;4974184;28;20079;-71
2022/11/29 00:42:22;;;;;;;25.17;23.17;;;;;;;11.01;63.63;101341.47;4975090;28;20027;-71
2022/11/29 00:44:47;;;;;;;25.92;23.67;;;;;;;11.00;63.50;101331.72;4975312;28;20550;-71
2022/11/29 00:47:12;;;;;;;24.52;22.63;;;;;;;10.99;63.67;101338.19;4990446;28;20039;-71
2022/11/29 00:49:38;;;;;;;25.30;23.40;;;;;;;10.97;63.66;101327.59;4974443;28;20058;-72
2022/11/29 00:52:03;;;;;;;25.77;23.67;;;;;;;10.97;63.62;101333.00;4975459;28;20118;-71
2022/11/29 00:54:29;;;;;;;24.77;22.77;;;;;;;10.95;63.57;101335.13;4975431;28;20430;-71
2022/11/29 00:56:54;;;;;;;26.58;24.33;;;;;;;10.96;63.67;101335.94;4973906;28;20066;-72
2022/11/29 00:59:20;;;;;;;26.50;24.55;;;;;;;10.95;63.62;101337.81;4973879;28;20471;-71
2022/11/29 01:01:45;;;;;;;26.58;24.38;;;;;;;10.94;63.54;101336.19;4975297;28;20043;-71
2022/11/29 01:04:11;;;;;;;24.13;22.23;;;;;;;10.94;63.51;101330.78;4975033;28;20066;-71
2022/11/29 01:06:36;;;;;;;23.75;22.05;;;;;;;10.93;63.39;101336.41;4975525;28;20042;-71
2022/11/29 01:09:03;;;;;;;24.90;23.00;;;;;;;10.92;63.27;101338.28;4974844;28;20045;-71
2022/11/29 01:11:28;;;;;;;24.67;22.67;;;;;;;10.91;63.58;101331.25;4974909;28;20035;-71
2022/11/29 01:13:56;;;;;;;24.52;22.40;;;;;;;10.91;63.92;101338.50;4989730;28;20039;-71
2022/11/29 01:16:22;;;;;;;25.08;22.60;;;;;;;10.89;63.58;101330.66;4973685;28;20026;-72
2022/11/29 01:18:47;;;;;;;25.08;22.83;;;;;;;10.89;63.60;101338.75;4989765;28;20391;-71
2022/11/29 01:21:16;;;;;;;23.40;21.40;;;;;;;10.89;63.53;101337.94;4975590;28;20073;-71
2022/11/29 01:23:43;;;;;;;23.73;21.77;;;;;;;10.87;63.68;101335.44;4974504;28;20490;-77
2022/11/29 01:26:12;;;;;;;24.27;22.33;;;;;;;10.86;63.38;101336.50;4975030;28;20038;-71
2022/11/29 01:28:38;;;;;;;23.70;21.88;;;;;;;10.87;63.45;101334.63;4974740;28;20034;-71
2022/11/29 01:31:08;;;;;;;23.00;21.23;;;;;;;10.85;63.67;101342.94;4974618;28;20058;-72
2022/11/29 01:33:34;;;;;;;23.27;21.67;;;;;;;10.83;63.27;101337.78;4974951;28;20042;-71
2022/11/29 01:36:00;;;;;;;25.48;23.17;;;;;;;10.83;63.64;101340.50;4975124;28;20126;-71
2022/11/29 01:38:25;;;;;;;25.33;23.48;;;;;;;10.82;63.56;101344.25;4989568;28;20492;-72
2022/11/29 01:41:04;;;;;;;26.13;23.70;;;;;;;10.82;63.44;101349.66;4973115;28;20042;-71
2022/11/29 01:43:30;;;;;;;24.02;22.25;;;;;;;10.82;63.57;101356.94;4974668;28;20464;-71
2022/11/29 01:45:55;;;;;;;25.15;23.05;;;;;;;10.80;63.21;101359.84;4974485;28;20031;-71
2022/11/29 01:48:29;;;;;;;24.00;21.83;;;;;;;10.80;63.71;101367.97;4973425;28;20074;-71
2022/11/29 01:50:59;;;;;;;24.35;22.42;;;;;;;10.80;63.54;101375.25;4973241;28;20117;-71
2022/11/29 01:53:24;;;;;;;24.45;22.35;;;;;;;10.78;63.30;101372.75;4974480;28;20101;-71
2022/11/29 01:55:55;;;;;;;23.50;21.70;;;;;;;10.77;63.55;101376.53;4974975;28;20114;-71
2022/11/29 01:58:20;;;;;;;24.55;22.52;;;;;;;10.76;63.73;101383.00;4974507;28;20030;-71
2022/11/29 02:00:46;;;;;;;23.25;21.55;;;;;;;10.76;63.45;101383.00;4974308;28;20410;-77
2022/11/29 02:03:15;;;;;;;23.98;22.08;;;;;;;10.76;63.49;101388.41;4973266;28;20039;-70
2022/11/29 02:05:47;;;;;;;24.67;22.90;;;;;;;10.75;63.46;101389.44;4974667;28;20058;-71
2022/11/29 02:08:19;;;;;;;23.88;21.98;;;;;;;10.73;63.58;101396.94;4974461;28;20062;-73
2022/11/29 02:11:04;;;;;;;24.45;22.65;;;;;;;10.73;63.51;101401.53;4974879;28;20027;-71
2022/11/29 02:13:38;;;;;;;23.25;21.45;;;;;;;10.71;63.37;101404.47;4974608;28;20027;-71
2022/11/29 02:16:10;;;;;;;25.45;23.50;;;;;;;10.71;63.36;101401.78;4974644;28;20043;-71
2022/11/29 02:19:02;;;;;;;22.80;21.00;;;;;;;10.69;63.36;101398.47;4974373;28;20432;-71
2022/11/29 02:21:41;;;;;;;21.55;19.88;;;;;;;10.68;63.58;101407.59;4975452;28;20105;-71
2022/11/29 02:24:22;;;;;;;25.25;23.25;;;;;;;10.68;63.53;101409.50;4977955;28;20085;-70
2022/11/29 02:26:53;;;;;;;24.50;22.60;;;;;;;10.68;63.40;101412.19;4977901;28;20026;-76
2022/11/29 02:29:45;;;;;;;23.55;21.73;;;;;;;10.66;63.39;101412.44;4977522;28;20416;-70
2022/11/29 02:32:19;;;;;;;23.40;21.60;;;;;;;10.65;63.50;101418.88;4962035;28;20514;-71
2022/11/29 02:34:57;;;;;;;22.25;20.67;;;;;;;10.64;63.36;101419.94;4977992;28;20033;-70
2022/11/29 02:37:48;;;;;;;23.35;21.48;;;;;;;10.62;63.55;101416.63;4977505;28;20471;-71
2022/11/29 02:40:13;;;;;;;23.10;21.30;;;;;;;10.63;63.35;101420.16;4971876;28;20070;-70
2022/11/29 02:42:52;;;;;;;24.25;22.40;;;;;;;10.62;63.29;101419.34;4977605;28;20069;-70
2022/11/29 02:45:29;;;;;;;24.38;22.48;;;;;;;10.60;63.21;101422.25;4976917;28;20035;-71
2022/11/29 02:48:06;;;;;;;24.85;22.85;;;;;;;10.60;63.46;101421.44;4976985;28;20063;-71
2022/11/29 02:50:45;;;;;;;23.33;21.63;;;;;;;10.59;63.19;101419.78;4977423;28;20037;-71
2022/11/29 02:53:17;;;;;;;;;;;;;;;10.58;63.36;101420.81;4977509;28;20102;-70
2022/11/29 02:56:04;;;;;;;20.85;19.27;;;;;;;10.56;63.33;101421.06;4977338;28;19910;-70
2022/11/29 02:58:33;;;;;;;23.98;21.98;;;;;;;10.54;63.50;101425.88;4977816;28;20034;-71
2022/11/29 03:01:14;;;;;;;24.38;22.55;;;;;;;10.54;63.43;101427.75;4976926;28;20475;-70
2022/11/29 03:03:51;;;;;;;21.55;20.00;;;;;;;10.53;63.39;101431.50;4977191;28;20085;-70
2022/11/29 03:06:29;;;;;;;23.55;21.85;;;;;;;10.52;63.50;101424.44;4977176;28;20031;-72
2022/11/29 03:09:06;;;;;;;23.75;22.02;;;;;;;10.52;63.37;101427.16;4977356;28;20049;-72
2022/11/29 03:11:39;;;;;;;23.35;21.60;;;;;;;10.51;63.34;101426.31;4975522;28;20034;-70
2022/11/29 03:14:18;;;;;;;24.63;22.73;;;;;;;10.51;63.34;101431.72;4977009;28;20027;-70
2022/11/29 03:17:41;;;;;;;25.23;23.35;;;;;;;10.50;63.32;101434.66;4976701;28;20030;-70
2022/11/29 03:20:23;;;;;;;23.70;21.77;;;;;;;10.48;63.44;101439.44;4936163;29;20043;-70
2022/11/29 03:23:31;;;;;;;23.10;21.20;;;;;;;10.47;63.37;101445.91;4936213;29;20071;-69
2022/11/29 03:26:05;;;;;;;21.70;20.17;;;;;;;10.46;63.35;101444.22;4960285;28;20042;-72
2022/11/29 03:28:40;;;;;;;21.85;20.15;;;;;;;10.46;63.39;101439.69;4977325;28;20035;-73
2022/11/29 03:31:42;;;;;;;23.63;21.83;;;;;;;10.45;63.36;101440.72;4976635;28;20033;-71
2022/11/29 03:34:19;;;;;;;23.65;21.77;;;;;;;10.45;63.26;101446.13;4975938;28;20109;-73
2022/11/29 03:36:59;;;;;;;21.42;19.83;;;;;;;10.43;63.33;101450.09;4976956;28;20518;-70
2022/11/29 03:39:43;;;;;;;22.08;20.33;;;;;;;10.43;63.44;101452.78;4975602;28;20030;-70
2022/11/29 03:42:18;;;;;;;23.45;21.65;;;;;;;10.42;63.25;101454.69;4976440;28;20105;-69
2022/11/29 03:45:09;;;;;;;22.85;21.15;;;;;;;10.42;63.28;101453.84;4976536;28;20023;-70
2022/11/29 03:47:45;;;;;;;22.50;20.77;;;;;;;10.41;63.52;101453.03;4977032;28;20078;-72
2022/11/29 03:50:20;;;;;;;23.77;21.95;;;;;;;10.40;63.41;101457.59;4976011;28;20034;-71
2022/11/29 03:53:19;;;;;;;22.35;20.75;;;;;;;10.39;63.39;101460.53;4976338;28;20039;-71
2022/11/29 03:55:50;;;;;;;21.48;19.98;;;;;;;10.38;63.31;101465.13;4975365;28;20438;-71
2022/11/29 03:58:15;;;;;;;23.52;21.83;;;;;;;10.38;63.42;101464.25;4976158;28;20066;-71
2022/11/29 04:00:46;;;;;;;23.50;21.67;;;;;;;10.38;63.35;101459.72;4976131;28;20054;-71
2022/11/29 04:03:36;;;;;;;25.70;23.60;;;;;;;10.37;63.52;101463.44;4976019;28;20467;-71
2022/11/29 04:06:21;;;;;;;23.83;22.17;;;;;;;10.35;63.19;101468.22;4976643;28;20033;-71
2022/11/29 04:09:12;;;;;;;23.40;21.50;;;;;;;10.35;63.38;101465.53;4976565;28;20046;-73
2022/11/29 04:11:58;;;;;;;22.45;20.85;;;;;;;10.34;63.33;101463.91;4973638;28;20038;-71
2022/11/29 04:14:42;;;;;;;20.52;19.23;;;;;;;10.33;63.49;101466.81;4976397;28;20104;-71
2022/11/29 04:17:55;;;;;;;24.63;22.52;;;;;;;10.33;63.49;101473.06;4976070;28;20023;-71
2022/11/29 04:20:42;;;;;;;22.15;20.55;;;;;;;10.31;63.27;101466.22;4947116;28;20034;-70
2022/11/29 04:23:27;;;;;;;24.08;22.20;;;;;;;10.30;63.41;101467.25;4975638;28;20041;-71
2022/11/29 04:26:37;;;;;;;24.23;22.40;;;;;;;10.30;63.29;101475.38;4975718;28;20483;-71
2022/11/29 04:29:15;;;;;;;21.15;19.65;;;;;;;10.28;63.11;101480.16;4975696;28;20077;-74
2022/11/29 04:31:58;;;;;;;22.27;20.67;;;;;;;10.27;63.42;101482.00;4975784;28;20019;-72
2022/11/29 04:34:48;;;;;;;21.67;20.02;;;;;;;10.27;63.38;101484.69;4975971;28;20040;-71
2022/11/29 04:37:24;;;;;;;23.30;21.65;;;;;;;10.26;63.23;101483.06;4975751;28;20034;-70
2022/11/29 04:40:08;;;;;;;21.35;19.75;;;;;;;10.25;63.34;101492.19;4975586;28;20501;-71
2022/11/29 04:42:43;;;;;;;22.40;20.65;;;;;;;10.26;63.29;101493.03;4975457;28;20201;-71
2022/11/29 04:45:36;;;;;;;23.48;21.63;;;;;;;10.25;63.44;101491.38;4974908;28;20027;-71
2022/11/29 04:48:39;;;;;;;21.20;19.70;;;;;;;10.23;63.36;101497.00;4975631;28;20137;-71
2022/11/29 04:51:31;;;;;;;25.02;23.40;;;;;;;10.22;63.38;101491.81;4974940;28;20035;-74
2022/11/29 04:54:33;;;;;;;22.63;21.08;;;;;;;10.22;63.30;101489.13;4975555;28;20054;-71
2022/11/29 04:57:16;;;;;;;21.83;20.27;;;;;;;10.19;63.38;101491.22;4975196;28;20029;-71
2022/11/29 04:59:44;;;;;;;21.73;20.13;;;;;;;10.18;63.42;101486.88;4974919;28;20112;-70
2022/11/29 05:03:15;;;;;;;27.88;21.63;;;;;;;10.19;63.35;101501.19;4974731;28;20398;-73
2022/11/29 05:05:51;;;;;;;20.42;18.90;;;;;;;10.17;63.30;101509.50;4931204;29;20471;-71
2022/11/29 05:08:34;;;;;;;24.90;22.92;;;;;;;10.17;63.41;101514.09;4934531;29;20047;-70
2022/11/29 05:11:02;;;;;;;20.45;18.88;;;;;;;10.17;63.28;101517.59;4968178;28;20122;-74
2022/11/29 05:13:49;;;;;;;22.47;20.87;;;;;;;10.17;63.35;101527.59;4974760;28;20070;-70
2022/11/29 05:16:29;;;;;;;22.90;21.20;;;;;;;10.15;63.28;101522.41;4974720;28;20349;-71
2022/11/29 05:19:06;;;;;;;21.75;20.10;;;;;;;10.15;63.32;101525.13;4974931;28;20520;-71
2022/11/29 05:21:52;;;;;;;24.77;22.88;;;;;;;10.14;63.17;101526.16;4974499;28;20062;-71
2022/11/29 05:24:35;;;;;;;24.50;22.75;;;;;;;10.13;63.25;101535.31;4974786;28;20034;-70
2022/11/29 05:27:39;;;;;;;21.15;19.70;;;;;;;10.13;63.27;101537.16;4975018;28;20034;-70
2022/11/29 05:30:16;;;;;;;22.67;21.17;;;;;;;10.11;63.16;101541.97;4972643;28;20105;-72
2022/11/29 05:33:14;;;;;;;22.08;20.58;;;;;;;10.10;63.42;101540.31;4974723;28;20035;-70
2022/11/29 05:36:04;;;;;;;21.90;20.23;;;;;;;10.10;63.18;101548.41;4990486;28;20027;-70
2022/11/29 05:38:36;;;;;;;22.40;20.70;;;;;;;10.09;62.98;101547.59;4974537;28;20101;-70
2022/11/29 05:41:31;;;;;;;20.38;18.88;;;;;;;10.08;63.33;101550.47;4974673;28;20085;-72
2022/11/29 05:44:32;;;;;;;22.23;20.75;;;;;;;10.07;63.24;101555.06;4974857;28;20110;-71
2022/11/29 05:47:00;;;;;;;21.85;19.98;;;;;;;10.06;63.31;101558.00;4952816;28;20045;-71
2022/11/29 05:49:42;;;;;;;22.30;20.70;;;;;;;10.05;63.25;101559.03;4974780;28;20105;-72
2022/11/29 05:52:32;;;;;;;22.90;21.17;;;;;;;10.06;63.28;101568.81;4989933;28;20090;-70
2022/11/29 05:55:21;;;;;;;22.20;20.60;;;;;;;10.05;63.45;101577.94;4974752;28;20467;-71
2022/11/29 05:57:52;;;;;;;21.45;19.85;;;;;;;10.03;63.33;101588.97;4979045;28;20073;-71
2022/11/29 06:00:18;;;;;;;22.60;20.88;;;;;;;10.04;63.23;101582.50;4993323;28;20043;-70
2022/11/29 06:02:57;;;;;;;21.17;19.63;;;;;;;10.03;63.34;101583.56;4978072;28;20058;-70
2022/11/29 06:05:55;;;;;;;22.02;20.52;;;;;;;10.03;63.10;101580.00;4978504;28;20520;-72
2022/11/29 06:08:24;;;;;;;22.25;20.55;;;;;;;10.01;63.33;101580.25;4977721;28;20033;-70
2022/11/29 06:11:14;;;;;;;20.55;19.13;;;;;;;10.00;63.08;101589.38;4978127;28;20037;-71
2022/11/29 06:14:06;;;;;;;22.25;20.65;;;;;;;10.00;63.36;101596.66;4978134;28;20034;-70
2022/11/29 06:17:00;;;;;;;21.48;19.88;;;;;;;9.99;63.23;101595.00;4993067;28;20023;-71
2022/11/29 06:19:41;;;;;;;22.73;21.02;;;;;;;9.99;63.13;101595.00;4977889;28;20086;-70
2022/11/29 06:22:22;;;;;;;21.50;20.05;;;;;;;9.97;63.35;101606.00;4978307;28;20027;-71
2022/11/29 06:25:16;;;;;;;21.10;19.60;;;;;;;9.96;63.24;101607.88;4978143;28;20113;-70
2022/11/29 06:28:08;;;;;;;20.58;19.10;;;;;;;9.95;63.50;101617.03;4993027;28;20038;-72
2022/11/29 06:31:02;;;;;;;22.33;20.73;;;;;;;9.95;63.27;101616.19;4977698;28;20070;-70
2022/11/29 06:34:00;;;;;;;23.52;21.58;;;;;;;9.95;63.13;101626.97;4960309;28;20045;-72
2022/11/29 06:36:46;;;;;;;21.58;20.08;;;;;;;9.94;63.26;101631.56;4963935;28;20049;-70
2022/11/29 06:39:12;;;;;;;21.00;19.58;;;;;;;9.93;63.19;101629.09;4978227;28;20115;-70
2022/11/29 06:41:37;;;;;;;21.48;19.98;;;;;;;9.94;63.01;101636.13;4976496;28;20043;-70
2022/11/29 06:44:03;;;;;;;21.25;19.70;;;;;;;9.94;63.20;101636.13;4992549;28;20031;-71
2022/11/29 06:46:34;;;;;;;23.08;21.38;;;;;;;9.92;63.27;101638.22;4977454;28;20089;-70
2022/11/29 06:49:20;;;;;;;20.63;19.13;;;;;;;9.93;63.50;101650.69;4977488;28;20101;-71
2022/11/29 06:52:19;;;;;;;19.98;18.58;;;;;;;9.91;63.19;101653.59;4977652;28;20041;-72
2022/11/29 06:55:16;;;;;;;20.45;19.00;;;;;;;9.90;63.52;101651.94;4978000;28;20368;-71
2022/11/29 06:58:27;;;;;;;22.17;20.38;;;;;;;9.88;63.38;101651.31;4977211;28;20034;-70
2022/11/29 07:01:07;;;;;;;21.65;20.08;;;;;;;9.87;63.36;101657.75;4977996;28;20046;-71
2022/11/29 07:04:10;;;;;;;23.85;22.08;;;;;;;9.87;63.29;101656.94;4977481;28;20078;-70
2022/11/29 07:06:36;;;;;;;22.30;20.27;;;;;;;9.86;63.29;101657.97;4962463;28;20070;-71
2022/11/29 07:09:12;;;;;;;21.10;19.60;;;;;;;9.87;63.16;101657.75;4976233;28;20071;-70
2022/11/29 07:11:38;;;;;;;22.60;20.77;;;;;;;9.87;63.37;101663.16;4977210;28;20022;-70
2022/11/29 07:14:04;;;;;;;21.70;20.20;;;;;;;9.87;63.20;101668.53;4977013;28;20364;-70
2022/11/29 07:16:45;;;;;;;22.50;20.70;;;;;;;9.87;63.02;101665.84;4976813;28;20447;-70
2022/11/29 07:19:26;;;;;;;20.85;19.27;;;;;;;9.86;63.10;101666.91;4976700;28;20031;-71
2022/11/29 07:22:15;;;;;;;21.60;19.92;;;;;;;9.86;63.30;101672.31;4977422;28;20089;-72
2022/11/29 07:25:07;;;;;;;19.83;18.33;;;;;;;9.86;63.19;101672.31;4976582;28;20114;-71
2022/11/29 07:27:56;;;;;;;21.67;19.83;;;;;;;9.85;63.13;101675.19;4977581;28;20056;-72
2022/11/29 07:30:52;;;;;;;21.58;20.17;;;;;;;9.84;63.23;101684.34;4992402;28;20357;-69
2022/11/29 07:33:40;;;;;;;22.38;20.67;;;;;;;9.82;63.33;101692.66;4976617;28;20387;-71
2022/11/29 07:36:27;;;;;;;20.08;18.58;;;;;;;9.82;63.09;101698.03;4976775;28;20356;-71
2022/11/29 07:39:10;;;;;;;21.00;19.42;;;;;;;9.81;63.30;101703.69;4992047;28;20035;-70
2022/11/29 07:42:02;;;;;;;24.33;21.83;;;;;;;9.81;63.27;101715.28;4976779;28;20056;-71
2022/11/29 07:44:33;;;;;;;22.05;20.25;;;;;;;9.80;63.40;101719.00;4976444;28;20121;-71
2022/11/29 07:46:59;;;;;;;23.00;21.27;;;;;;;9.79;63.17;101720.06;4976235;28;20027;-72
2022/11/29 07:49:24;;;;;;;21.05;19.50;;;;;;;9.80;63.36;101721.72;4976352;28;20447;-71
2022/11/29 07:51:49;;;;;;;21.48;19.73;;;;;;;9.80;62.99;101721.72;4976478;28;20109;-71
2022/11/29 07:54:17;;;;;;;22.50;20.80;;;;;;;9.80;63.20;101721.72;4976335;28;20030;-72
2022/11/29 07:56:42;;;;;;;22.85;21.17;;;;;;;9.79;63.29;101725.47;4976218;28;20027;-73
2022/11/29 07:59:11;;;;;;;21.05;19.65;;;;;;;9.80;63.19;101732.50;4975986;28;20102;-70
2022/11/29 08:01:37;;;;;;;22.33;20.60;;;;;;;9.80;63.10;101726.28;4991577;28;20372;-71
2022/11/29 08:04:03;;;;;;;20.75;19.20;;;;;;;9.79;63.47;101730.84;4974826;28;20134;-71
2022/11/29 08:06:28;;;;;;;21.70;20.10;;;;;;;9.80;63.23;101734.38;4976036;28;20110;-72
2022/11/29 08:08:56;;;;;;;21.88;20.15;;;;;;;9.79;63.17;101730.84;4976506;28;20408;-71
2022/11/29 08:11:22;;;;;;;20.20;18.27;;;;;;;9.79;63.37;101727.34;4991749;28;20367;-71
2022/11/29 08:13:47;;;;;;;21.88;20.27;;;;;;;9.79;63.12;101728.16;4976109;28;20126;-71
2022/11/29 08:16:17;;;;;;;22.48;20.80;;;;;;;9.79;63.09;101732.75;4975852;28;20023;-71
2022/11/29 08:18:43;;;;;;;22.38;20.52;;;;;;;9.79;63.21;101721.94;4974477;28;20097;-71
2022/11/29 08:21:08;;;;;;;21.85;20.30;;;;;;;9.78;63.16;101723.81;4975401;28;20113;-73
2022/11/29 08:23:34;;;;;;;24.20;22.30;;;;;;;9.78;63.14;101718.41;4975715;28;20057;-72
2022/11/29 08:26:00;;;;;;;21.92;20.23;;;;;;;9.78;63.22;101729.22;4975705;28;20038;-74
2022/11/29 08:28:26;;;;;;;21.38;19.77;;;;;;;9.77;63.43;101730.25;4975434;28;20119;-73
2022/11/29 08:31:00;;;;;;;20.10;18.60;;;;;;;9.78;63.57;101739.16;4974254;28;20423;-72
2022/11/29 08:33:25;;;;;;;23.58;21.52;;;;;;;9.77;63.54;101743.72;4975522;28;20432;-72
2022/11/29 08:35:50;;;;;;;21.90;20.33;;;;;;;9.77;63.23;101748.31;4975515;28;20502;-73
2022/11/29 08:38:16;;;;;;;20.75;18.92;;;;;;;9.77;63.36;101751.81;4990766;28;20093;-71
2022/11/29 08:40:41;;;;;;;22.60;20.73;;;;;;;9.77;63.17;101746.44;4975406;28;20062;-71
2022/11/29 08:43:06;;;;;;;22.40;20.70;;;;;;;9.76;63.14;101747.47;4974225;28;20050;-71
2022/11/29 08:45:32;;;;;;;20.98;19.15;;;;;;;9.75;63.21;101746.66;4974075;28;20039;-72
2022/11/29 08:47:57;;;;;;;23.70;22.00;;;;;;;9.75;63.29;101756.59;4975101;28;20399;-72
2022/11/29 08:50:23;;;;;;;21.50;20.00;;;;;;;9.75;63.20;101752.06;4975197;28;20030;-73
2022/11/29 08:55:38;;;;;;;21.15;19.58;;;;;;;9.74;63.14;101763.06;4973919;28;20050;-72
2022/11/29 08:58:07;;;;;;;22.40;20.58;;;;;;;9.74;63.25;101760.34;4974204;28;20459;-73
2022/11/29 09:00:33;;;;;;;21.95;20.05;;;;;;;9.73;63.11;101754.13;4975762;28;20027;-77
2022/11/29 09:05:45;;;;;;;23.23;21.20;;;;;;;9.74;63.09;101757.66;4975035;28;20068;-71
2022/11/29 09:08:10;;;;;;;22.00;20.10;;;;;;;9.74;63.22;101765.75;4989981;28;20063;-71
2022/11/29 09:10:38;;;;;;;24.13;22.20;;;;;;;9.73;63.17;101764.94;4975354;28;20387;-72
2022/11/29 09:13:03;;;;;;;24.63;22.48;;;;;;;9.73;63.31;101773.03;4975316;28;20034;-71
2022/11/29 09:15:29;;;;;;;22.45;20.55;;;;;;;9.73;63.23;101778.41;4973511;28;20051;-75
2022/11/29 09:17:54;;;;;;;21.23;19.48;;;;;;;9.74;63.13;101781.94;4989879;28;20043;-79
2022/11/29 09:20:20;;;;;;;20.33;18.83;;;;;;;9.73;63.30;101789.22;4974935;28;20046;-73
2022/11/29 09:22:45;;;;;;;23.60;21.88;;;;;;;9.73;63.23;101786.50;4989553;28;20189;-73
2022/11/29 09:25:10;;;;;;;22.20;20.20;;;;;;;9.72;63.19;101790.22;4974502;28;20110;-72
2022/11/29 09:27:36;;;;;;;21.08;19.38;;;;;;;9.73;63.31;101786.50;4989493;28;20188;-72
2022/11/29 09:30:01;;;;;;;23.85;21.48;;;;;;;9.73;63.32;101785.69;4974270;28;20035;-72
2022/11/29 09:32:26;;;;;;;22.50;20.83;;;;;;;9.74;63.18;101798.13;4989398;28;20026;-73
2022/11/29 09:34:52;;;;;;;22.83;20.85;;;;;;;9.73;63.40;101800.00;4974162;28;20586;-74
2022/11/29 09:37:17;;;;;;;22.23;20.33;;;;;;;9.74;63.30;101795.44;4972992;28;20034;-71
2022/11/29 09:39:42;;;;;;;24.05;22.00;;;;;;;9.73;63.39;101800.00;4973687;28;20041;-73
2022/11/29 09:42:18;;;;;;;23.15;21.02;;;;;;;9.73;63.33;101802.69;4988750;28;20085;-73
2022/11/29 09:44:54;;;;;;;24.00;21.80;;;;;;;9.74;63.33;101814.31;4973128;28;20408;-73
2022/11/29 09:47:50;;;;;;;21.95;20.25;;;;;;;9.74;63.14;101811.63;4989249;28;20042;-72
2022/11/29 09:50:28;;;;;;;21.35;19.80;;;;;;;9.73;63.37;101809.97;4974257;28;20034;-72
2022/11/29 09:53:14;;;;;;;22.42;20.55;;;;;;;9.72;63.24;101809.13;4974241;28;20034;-72
2022/11/29 09:56:11;;;;;;;20.67;19.00;;;;;;;9.72;63.49;101806.41;4974045;28;20434;-74
2022/11/29 09:58:46;;;;;;;22.83;20.92;;;;;;;9.72;63.28;101811.00;4974343;28;20467;-72
2022/11/29 10:01:21;;;;;;;23.00;21.08;;;;;;;9.72;63.33;101808.28;4974437;28;20383;-71
2022/11/29 10:03:51;;;;;;;22.98;21.10;;;;;;;9.73;63.21;101812.66;4974279;28;20122;-72
2022/11/29 10:06:24;;;;;;;23.27;21.30;;;;;;;9.74;63.21;101806.22;4974770;28;20019;-71
2022/11/29 10:09:01;;;;;;;23.25;21.30;;;;;;;9.73;63.21;101808.09;4974143;28;20035;-70
2022/11/29 10:11:38;;;;;;;22.67;20.50;;;;;;;9.74;63.41;101811.63;4974380;28;20376;-72
2022/11/29 10:14:32;;;;;;;23.80;21.77;;;;;;;9.75;63.45;101815.97;4973814;28;20082;-72
2022/11/29 10:17:21;;;;;;;23.65;21.40;;;;;;;9.74;63.38;101820.53;4975043;28;20034;-73
2022/11/29 10:19:51;;;;;;;23.05;21.00;;;;;;;9.75;63.25;101818.66;4974072;28;20031;-73
2022/11/29 10:22:24;;;;;;;22.60;20.60;;;;;;;9.76;63.44;101820.34;4974346;28;20138;-73
2022/11/29 10:24:58;;;;;;;22.90;20.70;;;;;;;9.77;63.30;101823.84;4974082;28;20117;-72
2022/11/29 10:27:26;;;;;;;23.05;21.15;;;;;;;9.77;63.26;101819.28;4974342;28;20034;-72
2022/11/29 10:29:52;;;;;;;;;;;;;;;9.78;63.33;101820.09;4974396;28;20041;-71
2022/11/29 10:32:21;;;;;;;20.33;18.60;;;;;;;9.77;63.39;101824.69;4973848;28;19918;-74
2022/11/29 10:34:48;;;;;;;20.30;18.67;;;;;;;9.77;63.31;101815.75;4973930;28;20357;-71
2022/11/29 10:37:18;;;;;;;21.52;19.45;;;;;;;9.77;63.55;101813.88;4973633;28;20483;-73
2022/11/29 10:39:47;;;;;;;21.67;19.48;;;;;;;9.77;63.38;101808.50;4974172;28;20026;-72
2022/11/29 10:45:10;;;;;;;22.58;20.50;;;;;;;9.79;63.44;101811.81;4977826;28;20490;-72
2022/11/29 10:47:35;;;;;;;20.85;19.20;;;;;;;9.80;63.43;101818.03;4977562;28;20124;-72
2022/11/29 10:50:01;;;;;;;23.45;21.42;;;;;;;9.80;63.43;101812.63;4992659;28;20031;-73
2022/11/29 10:52:26;;;;;;;19.52;18.02;;;;;;;9.80;63.42;101816.16;4976241;28;20525;-76
2022/11/29 10:54:58;;;;;;;21.92;19.90;;;;;;;9.81;63.33;101814.31;4977692;28;20050;-72
2022/11/29 10:57:23;;;;;;;22.52;20.48;;;;;;;9.82;63.34;101816.78;4992649;28;20062;-74
2022/11/29 11:00:00;;;;;;;22.40;20.58;;;;;;;9.82;63.18;101819.47;4977098;28;20073;-72
2022/11/29 11:02:26;;;;;;;20.63;19.00;;;;;;;9.83;63.24;101815.75;4977336;28;20042;-72
2022/11/29 11:04:52;;;;;;;23.48;21.55;;;;;;;9.84;63.58;101814.69;4977042;28;20384;-76
2022/11/29 11:07:24;;;;;;;20.67;19.08;;;;;;;9.85;63.33;101820.91;4977200;28;20035;-70
2022/11/29 11:09:54;;;;;;;22.63;20.42;;;;;;;9.85;63.38;101824.47;4977709;28;20494;-71
2022/11/29 11:12:24;;;;;;;21.45;19.70;;;;;;;9.85;63.53;101829.88;4977552;28;20070;-72
2022/11/29 11:14:50;;;;;;;20.60;18.63;;;;;;;9.85;63.46;101832.56;4977004;28;20027;-71
2022/11/29 11:17:31;;;;;;;20.80;19.13;;;;;;;9.86;63.53;101831.50;4977055;28;20027;-71
2022/11/29 11:19:59;;;;;;;22.42;20.75;;;;;;;9.85;63.56;101827.19;4977548;28;20033;-70
2022/11/29 11:22:26;;;;;;;20.13;18.27;;;;;;;9.87;63.57;101829.63;4976949;28;20023;-71
2022/11/29 11:25:00;;;;;;;22.27;20.42;;;;;;;9.87;63.42;101833.16;4977558;28;20026;-74
2022/11/29 11:27:38;;;;;;;20.67;18.98;;;;;;;9.87;63.72;101829.63;4977106;28;20087;-71
2022/11/29 11:30:06;;;;;;;23.40;21.27;;;;;;;9.88;63.63;101834.84;4976828;28;20467;-72
2022/11/29 11:32:32;;;;;;;22.52;20.40;;;;;;;9.88;63.41;101826.75;4976614;28;20289;-70
2022/11/29 11:35:00;;;;;;;24.20;22.20;;;;;;;9.88;63.72;101826.75;4976635;28;20046;-70
2022/11/29 11:37:28;;;;;;;21.50;19.80;;;;;;;9.89;63.65;101823.00;4976138;28;20361;-70
2022/11/29 11:39:57;;;;;;;21.20;18.92;;;;;;;9.91;63.53;101837.09;4976594;28;20019;-70
2022/11/29 11:42:36;;;;;;;24.00;20.30;;;;;;;9.91;63.48;101837.09;4975326;28;20046;-70
2022/11/29 11:45:22;;;;;;;;;;;;;;;9.92;63.82;101837.94;4977008;28;20107;-71
2022/11/29 11:47:51;;;;;;;21.27;19.10;;;;;;;9.92;63.37;101840.63;4972635;28;19928;-72
2022/11/29 11:50:26;;;;;;;20.63;18.67;;;;;;;9.91;63.76;101847.91;4976428;28;20450;-74
2022/11/29 11:52:56;;;;;;;20.88;19.00;;;;;;;9.92;63.66;101852.25;4976649;28;20039;-70
2022/11/29 11:55:24;;;;;;;21.55;19.65;;;;;;;9.93;63.60;101851.22;4976384;28;20023;-72
2022/11/29 11:58:11;;;;;;;20.43;18.77;;;;;;;9.95;63.67;101854.56;4976811;28;20037;-70
2022/11/29 12:00:54;;;;;;;20.80;19.13;;;;;;;9.95;63.52;101859.09;4976776;28;20034;-70